Accueil
METAR-TAF:

METAR-TAF

Aéroports :

Florianópolis, Santa Catarina, Brésil

Aéroport international Hercílio Luz

latitude: 27-40S, longitude: 048-33W, altitude: 5 m

Observation

Le bulletin a été fait il y a 57 minutes, à 23:00 UTC
Vent 3 kt de nord
Température 23°C
Humidité 83%
Pression 1016 hPa
Visibilité 10 km ou plus
Quelques nuages à une hauteur de 3500 ft

METAR: SBFL 202300Z 36003KT 9999 FEW035 23/20 Q1016

Heure: 20:57 (23:57 UTC)

Prévision

Le bulletin a été fait il y a 2 heures et 27 minutes, à 21:30 UTC
Prévision valable du 21 à 00 UTC au 21 à 24 UTC
Vent 6 kt de nord/nord-ouest
Visibilité 10 km ou plus
pas de nuages en-dessous de 1500 mètres et pas de cumulonimbus.
Evoluant progressivement
du 21 à 12 UTC au 21 à 14 UTC
Vent 10 kt de nord

TAF: SBFL 202130Z 2100/2124 33006KT CAVOK TN18/2108Z TX30/2118Z BECMG 2112/2114 01010KT RMK PDJ

Observations et prévisions météorologiques de plus de 4000 aéroports (messages METAR et TAF).

Les stations disponibles sont représentées par des disques jaunes et rouges sur la carte.

Passer la souris dessus pour voir le nom de la station.

Cliquer dessus pour voir les observations et prévisions météorologiques.

Pour changer de carte: cliquez sur les boutons verts avec une croix noire pour zoomer, sur le bouton vert avec un tiret pour effectuer un zoom arrière, ou sur les flèches vertes pour les cartes adjacentes.


METAR-TAF: